Time;durP1;ratioP1;P1;durP2;ratioP2;P2;SDS_P1;SDS_P2;PMS_P1;PMS_P2;Temp;Humidity;BMP_temperature;BMP_pressure;BME280_temperature;BME280_humidity;BME280_pressure;Samples;Min_cycle;Max_cycle;Signal;HPM_P1;HPM_P2
2022/09/25 00:00:18;;;;;;;8.77;6.70;;;12.70;99.90;;;;;;5048574;28;20513;-72
2022/09/25 00:02:43;;;;;;;10.68;6.57;;;12.70;99.90;;;;;;5039315;28;20403;-73
2022/09/25 00:05:09;;;;;;;9.23;6.68;;;12.70;99.90;;;;;;5049540;28;20506;-72
2022/09/25 00:07:34;;;;;;;10.68;6.88;;;12.70;99.90;;;;;;5049184;28;20033;-73
2022/09/25 00:10:00;;;;;;;12.20;7.05;;;12.60;99.90;;;;;;5048220;28;20087;-73
2022/09/25 00:12:25;;;;;;;8.90;6.20;;;12.60;99.90;;;;;;5046106;28;20411;-73
2022/09/25 00:14:51;;;;;;;10.55;7.28;;;12.70;99.90;;;;;;5048773;28;20135;-73
2022/09/25 00:17:17;;;;;;;10.90;7.05;;;12.60;99.90;;;;;;5047703;28;20025;-73
2022/09/25 00:19:51;;;;;;;8.52;6.15;;;12.60;99.90;;;;;;5045290;28;20090;-73
2022/09/25 00:22:19;;;;;;;10.25;6.85;;;12.60;99.90;;;;;;5025221;28;20078;-73
2022/09/25 00:24:44;;;;;;;9.00;6.43;;;12.60;99.90;;;;;;5045964;28;20125;-73
2022/09/25 00:27:10;;;;;;;11.05;7.45;;;12.60;99.90;;;;;;5046945;28;20442;-72
2022/09/25 00:29:37;;;;;;;11.23;6.90;;;12.50;99.90;;;;;;5040818;28;20539;-73
2022/09/25 00:32:05;;;;;;;10.45;7.10;;;12.50;99.90;;;;;;5040236;28;20018;-73
2022/09/25 00:34:30;;;;;;;9.88;6.88;;;12.50;99.90;;;;;;5042819;28;20026;-73
2022/09/25 00:36:55;;;;;;;10.80;6.95;;;12.50;99.90;;;;;;5045586;28;20013;-73
2022/09/25 00:39:21;;;;;;;10.02;6.63;;;12.50;99.90;;;;;;5047551;28;20017;-73
2022/09/25 00:41:46;;;;;;;10.45;6.68;;;12.50;99.90;;;;;;5047166;28;20108;-73
2022/09/25 00:44:51;;;;;;;11.05;6.80;;;12.50;99.90;;;;;;5046833;28;20529;-73
2022/09/25 00:47:21;;;;;;;10.90;6.50;;;12.40;99.90;;;;;;5045861;28;20712;-73
2022/09/25 00:49:47;;;;;;;10.35;6.53;;;12.40;99.90;;;;;;5033324;28;20042;-73
2022/09/25 00:52:13;;;;;;;10.73;7.13;;;12.40;99.90;;;;;;5044012;28;20033;-73
2022/09/25 00:54:46;;;;;;;11.20;7.00;;;12.50;99.90;;;;;;5046497;28;20433;-73
2022/09/25 00:57:18;;;;;;;11.02;6.88;;;12.50;99.90;;;;;;5047798;28;20028;-73
2022/09/25 00:59:49;;;;;;;9.07;6.25;;;12.50;99.90;;;;;;5047915;28;20116;-73
2022/09/25 01:02:27;;;;;;;10.98;6.47;;;12.50;99.90;;;;;;5047774;28;20581;-73
2022/09/25 01:04:56;;;;;;;8.27;6.55;;;12.50;99.90;;;;;;5046684;28;20037;-73
2022/09/25 01:07:22;;;;;;;9.93;6.45;;;12.50;99.90;;;;;;5047179;28;20068;-73
2022/09/25 01:09:48;;;;;;;10.65;7.10;;;12.50;99.90;;;;;;5047311;28;20029;-74
2022/09/25 01:12:14;;;;;;;9.98;6.70;;;12.50;99.90;;;;;;5041325;28;20033;-73
2022/09/25 01:14:40;;;;;;;9.18;6.80;;;12.50;99.90;;;;;;5038521;28;20020;-73
2022/09/25 01:17:20;;;;;;;10.25;6.50;;;12.50;99.90;;;;;;5046885;28;20029;-74
2022/09/25 01:20:03;;;;;;;9.43;6.63;;;12.40;99.90;;;;;;5046465;28;20044;-74
2022/09/25 01:23:05;;;;;;;11.05;7.13;;;12.40;99.90;;;;;;5044809;28;20033;-74
2022/09/25 01:26:02;;;;;;;9.82;6.53;;;12.40;99.90;;;;;;5046614;28;20025;-73
2022/09/25 01:28:34;;;;;;;10.77;6.88;;;12.40;99.90;;;;;;5043948;28;20043;-73
2022/09/25 01:31:34;;;;;;;10.18;7.03;;;12.30;99.90;;;;;;5046773;28;20027;-72
2022/09/25 01:34:07;;;;;;;12.80;6.80;;;12.30;99.90;;;;;;5034332;28;20111;-73
2022/09/25 01:36:38;;;;;;;12.40;7.68;;;12.20;99.90;;;;;;5050459;28;20507;-73
2022/09/25 01:39:21;;;;;;;10.93;6.68;;;12.10;99.90;;;;;;5053617;28;20037;-73
2022/09/25 01:41:57;;;;;;;9.65;6.70;;;12.20;99.90;;;;;;5051360;28;20033;-73
2022/09/25 01:44:30;;;;;;;11.10;6.47;;;12.30;99.90;;;;;;5053260;28;20104;-73
2022/09/25 01:47:06;;;;;;;10.32;6.50;;;12.30;99.90;;;;;;5050977;28;20118;-73
2022/09/25 01:49:36;;;;;;;9.75;7.18;;;12.20;99.90;;;;;;5051744;28;20033;-73
2022/09/25 01:52:09;;;;;;;10.68;6.50;;;12.30;99.90;;;;;;5048391;28;20021;-73
2022/09/25 01:54:40;;;;;;;9.52;6.82;;;12.30;99.90;;;;;;5046915;28;20061;-73
2022/09/25 01:57:24;;;;;;;11.77;6.88;;;12.40;99.90;;;;;;5053686;28;20021;-73
2022/09/25 02:00:01;;;;;;;10.43;6.35;;;12.40;99.90;;;;;;5051023;28;20557;-73
2022/09/25 02:02:33;;;;;;;9.77;6.78;;;12.30;99.90;;;;;;5047979;28;20029;-72
2022/09/25 02:05:11;;;;;;;10.43;6.72;;;12.30;99.90;;;;;;5053522;28;20557;-73
2022/09/25 02:07:44;;;;;;;10.73;6.45;;;12.30;99.90;;;;;;5053826;28;20029;-73
2022/09/25 02:10:16;;;;;;;11.32;7.28;;;12.40;99.90;;;;;;5053078;28;20491;-73
2022/09/25 02:12:46;;;;;;;10.45;6.68;;;12.30;99.90;;;;;;5052987;28;20033;-73
2022/09/25 02:15:23;;;;;;;10.07;6.88;;;12.40;99.90;;;;;;5051787;28;20582;-73
2022/09/25 02:20:49;;;;;;;11.68;7.00;;;12.40;99.90;;;;;;5050915;28;20044;-72
2022/09/25 02:23:22;;;;;;;10.95;6.75;;;12.40;99.90;;;;;;5053229;28;20491;-74
2022/09/25 02:26:04;;;;;;;10.15;6.65;;;12.40;99.90;;;;;;5045595;28;20044;-74
2022/09/25 02:28:30;;;;;;;10.93;6.05;;;12.40;99.90;;;;;;5052409;28;20051;-74
2022/09/25 02:30:58;;;;;;;9.82;6.78;;;12.40;99.90;;;;;;5048107;28;20655;-73
2022/09/25 02:33:25;;;;;;;8.43;6.43;;;12.40;99.90;;;;;;5046747;28;20025;-73
2022/09/25 02:35:50;;;;;;;8.82;6.47;;;12.30;99.90;;;;;;5053002;28;20036;-73
2022/09/25 02:38:16;;;;;;;12.63;6.65;;;12.30;99.90;;;;;;5049644;28;20021;-73
2022/09/25 02:40:55;;;;;;;9.77;6.57;;;12.30;99.90;;;;;;5049924;28;20982;-73
2022/09/25 02:43:45;;;;;;;9.05;6.18;;;12.30;99.90;;;;;;5044428;28;20025;-74
2022/09/25 02:46:28;;;;;;;8.43;6.10;;;12.30;99.90;;;;;;5043093;28;20116;-73
2022/09/25 02:49:04;;;;;;;9.00;6.50;;;12.30;99.90;;;;;;5042785;28;20024;-73
2022/09/25 02:51:37;;;;;;;8.05;5.88;;;12.30;99.90;;;;;;5045455;28;20075;-73
2022/09/25 02:54:12;;;;;;;8.00;5.60;;;12.30;99.90;;;;;;5042058;28;20385;-73
2022/09/25 02:56:46;;;;;;;10.70;6.40;;;12.30;99.90;;;;;;5041511;28;20029;-73
2022/09/25 02:59:21;;;;;;;8.45;6.00;;;12.30;99.90;;;;;;5048594;28;20033;-73
2022/09/25 03:01:48;;;;;;;9.45;5.88;;;12.30;99.90;;;;;;5043177;28;20137;-73
2022/09/25 03:04:16;;;;;;;9.88;6.50;;;12.20;99.90;;;;;;5047999;28;20040;-72
2022/09/25 03:06:43;;;;;;;8.55;5.38;;;12.20;99.90;;;;;;5043740;28;20033;-73
2022/09/25 03:09:12;;;;;;;7.60;5.50;;;12.20;99.90;;;;;;5044991;28;20099;-73
2022/09/25 03:11:40;;;;;;;8.15;5.50;;;12.00;99.90;;;;;;5043733;28;20052;-73
2022/09/25 03:14:05;;;;;;;7.80;5.50;;;12.00;99.90;;;;;;5045097;28;20499;-73
2022/09/25 03:16:42;;;;;;;8.82;5.50;;;12.00;99.90;;;;;;5045839;28;20036;-72
2022/09/25 03:19:07;;;;;;;10.75;5.50;;;12.00;99.90;;;;;;5045820;28;20037;-73
2022/09/25 03:21:33;;;;;;;7.72;4.93;;;12.00;99.90;;;;;;5044685;28;20036;-73
2022/09/25 03:23:59;;;;;;;8.65;5.22;;;12.10;99.90;;;;;;5044164;28;20098;-73
2022/09/25 03:26:26;;;;;;;7.32;5.15;;;12.00;99.90;;;;;;5047424;28;20033;-73
2022/09/25 03:28:52;;;;;;;7.15;5.28;;;12.10;99.90;;;;;;5045229;28;20048;-73
2022/09/25 03:31:17;;;;;;;6.18;4.85;;;12.10;99.90;;;;;;5044121;28;20017;-73
2022/09/25 03:33:44;;;;;;;7.70;5.43;;;12.10;99.90;;;;;;5045498;28;20025;-73
2022/09/25 03:36:19;;;;;;;6.97;5.13;;;12.00;99.90;;;;;;5046425;28;20110;-73
2022/09/25 03:38:47;;;;;;;6.03;4.93;;;12.00;99.90;;;;;;5043357;28;20084;-73
2022/09/25 03:41:14;;;;;;;8.77;5.55;;;12.00;99.90;;;;;;5040976;28;20049;-73
2022/09/25 03:43:41;;;;;;;7.65;5.55;;;12.10;99.90;;;;;;5045318;28;20087;-73
2022/09/25 03:46:09;;;;;;;9.15;5.28;;;12.10;99.90;;;;;;5041355;28;20056;-74
2022/09/25 03:48:42;;;;;;;7.20;5.13;;;12.10;99.90;;;;;;5044831;28;20057;-72
2022/09/25 03:51:08;;;;;;;9.45;4.78;;;12.10;99.90;;;;;;5047490;28;20024;-73
2022/09/25 03:53:34;;;;;;;7.85;4.85;;;12.10;99.90;;;;;;5047395;28;20032;-73
2022/09/25 03:56:05;;;;;;;6.70;5.13;;;12.00;99.90;;;;;;5044978;28;20021;-72
2022/09/25 03:58:31;;;;;;;7.32;4.72;;;12.00;99.90;;;;;;5048951;28;20043;-74
2022/09/25 04:00:56;;;;;;;7.00;5.10;;;12.00;99.90;;;;;;5043829;28;20279;-73
2022/09/25 04:03:25;;;;;;;6.63;5.10;;;12.10;99.90;;;;;;5043028;28;20120;-73
2022/09/25 04:05:50;;;;;;;6.82;4.65;;;12.00;99.90;;;;;;5044673;28;20053;-73
2022/09/25 04:08:16;;;;;;;8.63;4.70;;;12.00;99.90;;;;;;5039844;28;20053;-72
2022/09/25 04:10:41;;;;;;;6.00;4.43;;;12.00;99.90;;;;;;5046975;28;20021;-73
2022/09/25 04:13:11;;;;;;;8.52;5.30;;;12.00;99.90;;;;;;5037669;28;20021;-73
2022/09/25 04:15:38;;;;;;;6.82;4.55;;;12.00;99.90;;;;;;5048137;28;20025;-73
2022/09/25 04:18:04;;;;;;;7.03;4.30;;;12.00;99.90;;;;;;5049146;28;20391;-73
2022/09/25 04:20:30;;;;;;;5.82;4.45;;;12.00;99.90;;;;;;5034937;28;20021;-73
2022/09/25 04:22:58;;;;;;;6.65;4.20;;;12.00;99.90;;;;;;5047318;28;20049;-73
2022/09/25 04:25:24;;;;;;;6.95;4.80;;;11.90;99.90;;;;;;5046250;28;20479;-72
2022/09/25 04:27:54;;;;;;;6.22;4.53;;;11.90;99.90;;;;;;5047072;28;20049;-73
2022/09/25 04:30:21;;;;;;;11.75;4.93;;;11.90;99.90;;;;;;5044505;28;20083;-73
2022/09/25 04:35:31;;;;;;;8.30;4.80;;;11.90;99.90;;;;;;5037620;28;20051;-73
2022/09/25 04:37:56;;;;;;;6.85;4.45;;;11.90;99.90;;;;;;5039145;28;20472;-73
2022/09/25 04:40:22;;;;;;;7.30;4.80;;;11.90;99.90;;;;;;5042039;28;20021;-73
2022/09/25 04:42:47;;;;;;;6.40;4.82;;;11.80;99.90;;;;;;5046030;28;20029;-73
2022/09/25 04:45:13;;;;;;;6.55;4.30;;;11.80;99.90;;;;;;5046372;28;20061;-73
2022/09/25 04:47:39;;;;;;;6.07;4.45;;;11.80;99.90;;;;;;5044712;28;20043;-72
2022/09/25 04:50:04;;;;;;;6.28;4.38;;;11.80;99.90;;;;;;5042638;28;20116;-73
2022/09/25 04:52:30;;;;;;;7.13;4.93;;;11.80;99.90;;;;;;5046497;28;20032;-73
2022/09/25 04:54:56;;;;;;;7.65;4.40;;;11.80;99.90;;;;;;5046953;28;20033;-72
2022/09/25 04:57:22;;;;;;;6.50;3.85;;;11.80;99.90;;;;;;5049149;28;20071;-73
2022/09/25 04:59:49;;;;;;;6.18;4.18;;;11.70;99.90;;;;;;5043727;28;20413;-73
2022/09/25 05:02:15;;;;;;;5.70;4.18;;;11.80;99.90;;;;;;5044998;28;20032;-74
2022/09/25 05:04:40;;;;;;;6.15;4.55;;;11.70;99.90;;;;;;5046567;28;20032;-74
2022/09/25 05:07:06;;;;;;;6.70;4.55;;;11.70;99.90;;;;;;5045640;28;20391;-74
2022/09/25 05:09:32;;;;;;;6.85;4.90;;;11.70;99.90;;;;;;5044360;28;20388;-74
2022/09/25 05:11:58;;;;;;;5.28;4.30;;;11.70;99.90;;;;;;5046782;28;20021;-74
2022/09/25 05:14:23;;;;;;;6.05;4.97;;;11.70;99.90;;;;;;5043643;28;20025;-73
2022/09/25 05:16:49;;;;;;;5.80;4.63;;;11.70;99.90;;;;;;5046263;28;20017;-74
2022/09/25 05:19:15;;;;;;;6.40;4.68;;;11.70;99.90;;;;;;5036354;28;20032;-73
2022/09/25 05:21:42;;;;;;;4.72;3.92;;;11.70;99.90;;;;;;5045461;28;20030;-73
2022/09/25 05:24:08;;;;;;;6.20;4.35;;;11.60;99.90;;;;;;5045530;28;20041;-73
2022/09/25 05:26:35;;;;;;;6.22;4.00;;;11.40;99.90;;;;;;5038966;28;20030;-73
2022/09/25 05:29:00;;;;;;;6.47;4.30;;;11.40;99.90;;;;;;5044991;28;20049;-74
2022/09/25 05:31:26;;;;;;;8.48;4.63;;;11.30;99.90;;;;;;5046307;28;20029;-73
2022/09/25 05:33:52;;;;;;;6.43;4.55;;;11.30;99.90;;;;;;5041410;28;20025;-73
2022/09/25 05:36:19;;;;;;;7.40;5.07;;;11.40;99.90;;;;;;5037361;28;20084;-72
2022/09/25 05:38:44;;;;;;;6.45;4.68;;;11.30;99.90;;;;;;5031229;28;20419;-73
2022/09/25 05:41:10;;;;;;;6.78;4.63;;;11.30;99.90;;;;;;5042297;28;20033;-73
2022/09/25 05:43:45;;;;;;;6.93;4.65;;;11.30;99.90;;;;;;5041369;28;20044;-74
2022/09/25 05:46:11;;;;;;;6.57;4.38;;;11.30;99.90;;;;;;5039484;28;20045;-74
2022/09/25 05:48:36;;;;;;;6.30;4.60;;;11.40;99.90;;;;;;5040150;28;20690;-74
2022/09/25 05:51:03;;;;;;;6.57;4.25;;;11.30;99.90;;;;;;5045819;28;20120;-72
2022/09/25 05:53:31;;;;;;;6.55;4.63;;;11.40;99.90;;;;;;5033499;28;20025;-72
2022/09/25 05:56:02;;;;;;;6.13;4.55;;;11.30;99.90;;;;;;5052204;28;20032;-72
2022/09/25 05:58:30;;;;;;;6.83;4.40;;;11.50;99.90;;;;;;5041252;28;20116;-72
2022/09/25 06:00:59;;;;;;;7.18;4.97;;;11.40;99.90;;;;;;5046759;28;20291;-72
2022/09/25 06:03:27;;;;;;;6.78;4.70;;;11.50;99.90;;;;;;5033147;28;20552;-73
2022/09/25 06:05:57;;;;;;;5.65;4.50;;;11.60;99.90;;;;;;5046034;28;20619;-73
2022/09/25 06:08:24;;;;;;;7.18;4.63;;;11.70;99.90;;;;;;5045417;28;20090;-73
2022/09/25 06:10:54;;;;;;;8.50;5.13;;;11.80;99.90;;;;;;5042837;28;20037;-73
2022/09/25 06:13:21;;;;;;;8.32;5.32;;;11.80;99.90;;;;;;5044677;28;20032;-72
2022/09/25 06:15:49;;;;;;;6.85;5.25;;;11.90;99.90;;;;;;5043962;28;20048;-73
2022/09/25 06:18:15;;;;;;;6.47;4.72;;;12.00;99.90;;;;;;5046534;28;20480;-72
2022/09/25 06:20:40;;;;;;;7.90;5.18;;;12.00;99.90;;;;;;5046323;28;20051;-73
2022/09/25 06:23:06;;;;;;;8.10;5.57;;;12.10;99.90;;;;;;5049958;28;20066;-73
2022/09/25 06:25:31;;;;;;;7.70;5.45;;;12.30;99.90;;;;;;5050661;28;20033;-73
2022/09/25 06:27:59;;;;;;;7.95;5.78;;;12.30;99.90;;;;;;5041566;28;20104;-72
2022/09/25 06:30:41;;;;;;;8.18;5.47;;;12.60;99.90;;;;;;5046063;28;20135;-73
2022/09/25 06:33:12;;;;;;;8.80;6.03;;;12.60;99.90;;;;;;5045309;28;20045;-74
2022/09/25 06:35:43;;;;;;;9.10;6.05;;;12.80;99.90;;;;;;5046135;28;20553;-74
2022/09/25 06:38:09;;;;;;;7.75;6.05;;;13.00;99.90;;;;;;5046476;28;20052;-73
2022/09/25 06:40:36;;;;;;;10.93;6.50;;;13.30;99.90;;;;;;5044808;28;20186;-74
2022/09/25 06:43:03;;;;;;;10.73;6.60;;;13.40;99.90;;;;;;5042309;28;20065;-75
2022/09/25 06:45:32;;;;;;;10.10;6.88;;;13.60;99.90;;;;;;5041825;28;20037;-74
2022/09/25 06:48:12;;;;;;;9.15;6.22;;;13.60;99.90;;;;;;5045253;28;20110;-74
2022/09/25 06:50:50;;;;;;;9.98;6.70;;;13.60;99.90;;;;;;5044053;28;20022;-74
2022/09/25 06:53:17;;;;;;;8.43;6.13;;;13.60;99.90;;;;;;5036571;28;20025;-73
2022/09/25 06:55:46;;;;;;;10.60;6.28;;;13.70;99.90;;;;;;5041143;28;20115;-74
2022/09/25 06:58:14;;;;;;;11.02;6.50;;;13.70;99.90;;;;;;5048276;28;20028;-75
2022/09/25 07:00:44;;;;;;;10.25;6.60;;;13.80;99.90;;;;;;5041141;28;20036;-76
2022/09/25 07:05:53;;;;;;;10.75;6.57;;;13.80;99.90;;;;;;5039854;28;20474;-74
2022/09/25 07:08:19;;;;;;;8.73;6.15;;;13.90;99.90;;;;;;5044981;28;20025;-75
2022/09/25 07:10:53;;;;;;;9.25;6.15;;;13.90;99.90;;;;;;5044096;28;20033;-74
2022/09/25 07:13:24;;;;;;;10.75;6.20;;;13.80;99.90;;;;;;5046718;28;20037;-75
2022/09/25 07:15:54;;;;;;;10.50;6.40;;;14.00;99.90;;;;;;5040323;28;20035;-73
2022/09/25 07:18:24;;;;;;;8.68;6.28;;;14.20;99.90;;;;;;5039368;28;20076;-79
2022/09/25 07:20:50;;;;;;;9.88;6.38;;;14.20;99.90;;;;;;5046938;28;20021;-76
2022/09/25 07:23:18;;;;;;;10.18;5.72;;;14.20;99.90;;;;;;5048480;28;20040;-76
2022/09/25 07:25:44;;;;;;;12.45;6.60;;;14.30;99.90;;;;;;5045630;28;20032;-76
2022/09/25 07:28:13;;;;;;;11.55;6.60;;;14.50;99.90;;;;;;5038379;28;20080;-74
2022/09/25 07:30:40;;;;;;;9.52;6.63;;;14.50;99.90;;;;;;5045201;28;20049;-76
2022/09/25 07:33:06;;;;;;;9.40;6.28;;;14.60;99.90;;;;;;5042408;28;20187;-76
2022/09/25 07:35:33;;;;;;;10.57;6.00;;;14.80;99.90;;;;;;5038997;28;20112;-76
2022/09/25 07:37:59;;;;;;;9.35;6.18;;;15.00;99.90;;;;;;5048303;28;20082;-74
2022/09/25 07:40:27;;;;;;;10.15;6.40;;;15.10;99.90;;;;;;5047177;28;20028;-75
2022/09/25 07:42:58;;;;;;;11.05;6.53;;;15.10;99.90;;;;;;5040581;28;20033;-75
2022/09/25 07:45:24;;;;;;;9.65;6.20;;;15.00;99.90;;;;;;5046019;28;20028;-76
2022/09/25 07:47:49;;;;;;;10.60;6.43;;;15.00;99.90;;;;;;5049136;28;20388;-76
2022/09/25 07:50:15;;;;;;;12.23;7.25;;;14.90;99.90;;;;;;5044730;28;20037;-76
2022/09/25 07:52:43;;;;;;;9.45;6.10;;;15.10;99.90;;;;;;5044895;28;20150;-76
2022/09/25 07:55:08;;;;;;;9.77;6.50;;;15.30;99.90;;;;;;5045311;28;20107;-77
2022/09/25 07:57:34;;;;;;;9.95;6.38;;;15.30;99.90;;;;;;5045306;28;20052;-76
2022/09/25 07:59:59;;;;;;;8.75;6.57;;;15.30;99.90;;;;;;5040741;28;20044;-75
2022/09/25 08:02:25;;;;;;;10.32;6.57;;;15.30;99.90;;;;;;5043999;28;20021;-73
2022/09/25 08:04:51;;;;;;;14.80;6.40;;;15.10;99.90;;;;;;5048376;28;20028;-77
2022/09/25 08:07:17;;;;;;;9.32;6.45;;;14.90;99.90;;;;;;5042026;28;20082;-77
2022/09/25 08:09:44;;;;;;;10.38;6.03;;;14.90;99.90;;;;;;5043163;28;20102;-77
2022/09/25 08:12:11;;;;;;;10.25;6.72;;;15.10;99.90;;;;;;5042491;28;20082;-77
2022/09/25 08:14:40;;;;;;;10.20;6.05;;;15.20;99.90;;;;;;5043037;28;20036;-76
2022/09/25 08:17:06;;;;;;;10.30;6.35;;;15.30;99.90;;;;;;5038508;28;20112;-79
2022/09/25 08:19:32;;;;;;;11.02;6.88;;;15.40;99.90;;;;;;5044023;28;20168;-78
2022/09/25 08:21:57;;;;;;;8.55;6.43;;;15.30;99.90;;;;;;5044821;28;20029;-76
2022/09/25 08:24:23;;;;;;;10.07;6.18;;;15.10;99.90;;;;;;5046942;28;20045;-77
2022/09/25 08:26:49;;;;;;;10.02;6.20;;;15.00;99.90;;;;;;5046327;28;20063;-77
2022/09/25 08:29:14;;;;;;;9.70;6.53;;;15.20;99.90;;;;;;5042232;28;20460;-77
2022/09/25 08:31:40;;;;;;;9.57;6.53;;;15.60;99.90;;;;;;5040712;28;20030;-76
2022/09/25 08:34:07;;;;;;;10.45;7.13;;;15.80;99.90;;;;;;5041874;28;20034;-76
2022/09/25 08:36:32;;;;;;;10.23;6.55;;;15.90;99.90;;;;;;5029365;28;20025;-76
2022/09/25 08:38:59;;;;;;;10.02;6.65;;;16.00;99.90;;;;;;5044026;28;20036;-76
2022/09/25 08:41:29;;;;;;;11.63;6.82;;;16.20;99.90;;;;;;5046169;28;20024;-76
2022/09/25 08:44:08;;;;;;;9.65;6.55;;;16.10;99.90;;;;;;5045014;28;20463;-77
2022/09/25 08:49:35;;;;;;;11.05;6.68;;;15.90;99.90;;;;;;5035956;28;20255;-76
2022/09/25 08:52:06;;;;;;;8.63;6.35;;;16.10;99.90;;;;;;5035400;28;20033;-77
2022/09/25 08:54:33;;;;;;;10.10;6.38;;;16.00;99.90;;;;;;5043049;28;20025;-76
2022/09/25 08:57:06;;;;;;;10.90;6.75;;;16.20;99.90;;;;;;5044097;28;20065;-76
2022/09/25 08:59:37;;;;;;;8.80;6.65;;;16.60;99.90;;;;;;5041057;28;20037;-76
2022/09/25 09:02:09;;;;;;;;;;;16.80;99.90;;;;;;5041957;28;20064;-74
2022/09/25 09:04:50;;;;;;;11.52;6.80;;;16.70;99.90;;;;;;5032892;28;19913;-77
2022/09/25 09:07:25;;;;;;;8.82;6.35;;;16.40;99.90;;;;;;5027667;28;20063;-79
2022/09/25 09:10:17;;;;;;;11.90;6.25;;;16.80;99.90;;;;;;5031256;28;20037;-79
2022/09/25 09:12:46;;;;;;;10.00;6.85;;;17.30;99.90;;;;;;5031821;28;20052;-78
2022/09/25 09:15:31;;;;;;;12.38;7.03;;;17.30;99.90;;;;;;5031548;28;20029;-79
2022/09/25 09:18:01;;;;;;;10.20;6.32;;;17.70;99.90;;;;;;5034442;28;20055;-77
2022/09/25 09:20:44;;;;;;;10.35;6.70;;;18.00;99.90;;;;;;5017137;28;20365;-77
2022/09/25 09:23:17;;;;;;;9.60;6.47;;;17.80;99.20;;;;;;5034871;28;20025;-79
2022/09/25 09:26:00;;;;;;;18.00;7.05;;;18.20;99.30;;;;;;5035341;28;20017;-80
2022/09/25 09:29:07;;;;;;;9.70;6.60;;;18.10;95.70;;;;;;5034066;28;20033;-76
2022/09/25 09:32:19;;;;;;;10.77;6.20;;;17.60;97.40;;;;;;5034562;28;20458;-77
2022/09/25 09:35:00;;;;;;;9.68;6.50;;;17.40;99.80;;;;;;5037032;28;20416;-80
2022/09/25 09:37:34;;;;;;;10.65;6.78;;;17.30;99.90;;;;;;5034807;28;20033;-77
2022/09/25 09:40:18;;;;;;;10.57;6.68;;;17.80;99.60;;;;;;5036146;28;20057;-78
2022/09/25 09:43:12;;;;;;;9.77;6.00;;;18.40;98.60;;;;;;5036667;28;20128;-80
2022/09/25 09:45:51;;;;;;;13.68;7.13;;;18.50;95.60;;;;;;5034862;28;20503;-77
2022/09/25 09:48:27;;;;;;;9.75;6.07;;;18.50;95.50;;;;;;5034851;28;20037;-79
2022/09/25 09:51:05;;;;;;;11.50;7.10;;;18.20;94.60;;;;;;5034293;28;20045;-79
2022/09/25 09:53:48;;;;;;;11.85;7.32;;;18.70;95.80;;;;;;5035300;28;20037;-78
2022/09/25 09:56:28;;;;;;;9.43;6.35;;;19.00;94.70;;;;;;5040468;28;20476;-78
2022/09/25 09:59:04;;;;;;;12.20;7.13;;;19.50;94.90;;;;;;5040244;28;20032;-81
2022/09/25 10:01:42;;;;;;;11.55;6.78;;;19.60;91.80;;;;;;5039452;28;20043;-79
2022/09/25 10:04:13;;;;;;;11.48;7.47;;;19.20;90.90;;;;;;5032858;28;20032;-77
2022/09/25 10:06:51;;;;;;;10.10;6.68;;;19.30;90.10;;;;;;5034252;28;20044;-74
2022/09/25 10:09:22;;;;;;;8.93;6.00;;;19.70;88.20;;;;;;5036189;28;20091;-80
2022/09/25 10:11:59;;;;;;;8.65;5.88;;;19.60;88.40;;;;;;5037812;28;20090;-77
2022/09/25 10:14:31;;;;;;;9.35;6.65;;;19.90;87.00;;;;;;5037352;28;20025;-78
2022/09/25 10:16:57;;;;;;;10.70;6.97;;;19.60;87.40;;;;;;5032043;28;20056;-77
2022/09/25 10:19:27;;;;;;;7.70;5.70;;;19.60;85.90;;;;;;5037104;28;20049;-77
2022/09/25 10:22:02;;;;;;;15.73;7.38;;;19.70;88.00;;;;;;5035388;28;20774;-77
2022/09/25 10:24:50;;;;;;;11.23;7.20;;;19.50;87.20;;;;;;5034452;28;20026;-78
2022/09/25 10:27:25;;;;;;;10.07;6.28;;;19.40;84.80;;;;;;5035854;28;20144;-78
2022/09/25 10:30:09;;;;;;;10.25;6.30;;;19.90;86.70;;;;;;5037236;28;20053;-78
2022/09/25 10:32:59;;;;;;;11.55;6.38;;;20.70;84.50;;;;;;5037708;28;20025;-78
2022/09/25 10:35:37;;;;;;;7.45;5.55;;;20.90;80.90;;;;;;5036197;28;20030;-76
2022/09/25 10:38:05;;;;;;;11.18;6.28;;;20.60;82.00;;;;;;5034317;28;20053;-77
2022/09/25 10:40:36;;;;;;;10.35;6.80;;;21.00;80.00;;;;;;5035658;28;20033;-79
2022/09/25 10:43:07;;;;;;;9.18;6.75;;;20.70;79.40;;;;;;5038098;28;20033;-78
2022/09/25 10:45:35;;;;;;;8.68;6.05;;;21.00;79.60;;;;;;5042209;28;20083;-78
2022/09/25 10:51:09;;;;;;;9.88;6.63;;;21.10;78.60;;;;;;5037197;28;20230;-80
2022/09/25 10:53:34;;;;;;;8.18;5.75;;;21.30;78.50;;;;;;5045371;28;20025;-77
2022/09/25 10:56:04;;;;;;;11.73;6.88;;;21.80;79.30;;;;;;5044535;28;20507;-80
2022/09/25 10:58:37;;;;;;;9.40;6.15;;;21.40;75.00;;;;;;5045041;28;20032;-80
2022/09/25 11:01:05;;;;;;;11.43;6.63;;;21.60;75.30;;;;;;5045768;28;20029;-78
2022/09/25 11:03:44;;;;;;;8.50;6.10;;;22.60;74.60;;;;;;5042611;28;20122;-76
2022/09/25 11:06:19;;;;;;;7.97;5.53;;;24.30;69.70;;;;;;5044512;28;20691;-79
2022/09/25 11:08:48;;;;;;;10.18;6.72;;;24.80;62.40;;;;;;5044554;28;20033;-80
2022/09/25 11:11:20;;;;;;;8.95;6.00;;;25.20;60.30;;;;;;5043343;28;20766;-76
2022/09/25 11:13:51;;;;;;;8.50;6.13;;;26.40;58.00;;;;;;5045918;28;20045;-76
2022/09/25 11:16:18;;;;;;;9.82;5.80;;;25.20;59.10;;;;;;5040796;28;20017;-79
2022/09/25 11:19:27;;;;;;;7.78;5.28;;;24.50;61.30;;;;;;5040467;28;20423;-80
2022/09/25 11:22:22;;;;;;;9.05;5.72;;;23.70;63.10;;;;;;5040451;28;20484;-81
2022/09/25 11:25:22;;;;;;;8.25;5.57;;;22.50;66.70;;;;;;5039941;28;20530;-79
2022/09/25 11:27:56;;;;;;;11.05;5.35;;;22.50;68.10;;;;;;5047085;28;20563;-78
2022/09/25 11:30:22;;;;;;;6.45;4.20;;;22.10;67.10;;;;;;5039181;28;20048;-77
2022/09/25 11:33:19;;;;;;;6.00;4.32;;;21.80;67.10;;;;;;5044252;28;20440;-77
2022/09/25 11:35:55;;;;;;;8.35;4.43;;;22.00;68.40;;;;;;5040201;28;20492;-75
2022/09/25 11:41:44;;;;;;;6.38;4.22;;;22.20;68.10;;;;;;5044902;28;20088;-76
2022/09/25 11:44:35;;;;;;;5.88;4.20;;;22.80;69.70;;;;;;5039664;28;20033;-78
2022/09/25 11:47:23;;;;;;;6.68;4.15;;;23.30;64.50;;;;;;5040886;28;20048;-76
2022/09/25 11:49:52;;;;;;;7.32;4.80;;;23.80;63.10;;;;;;5042651;28;20048;-76
2022/09/25 11:53:00;;;;;;;6.68;4.47;;;23.70;64.60;;;;;;5035593;28;20547;-78
2022/09/25 11:56:01;;;;;;;6.18;4.13;;;22.90;62.90;;;;;;5037065;28;20041;-79
2022/09/25 11:59:08;;;;;;;8.93;5.45;;;22.60;67.50;;;;;;5041534;28;20065;-79
2022/09/25 12:02:02;;;;;;;5.75;4.60;;;22.10;66.80;;;;;;5031029;28;20125;-78
2022/09/25 12:04:55;;;;;;;7.03;4.20;;;22.70;66.50;;;;;;5041720;28;20021;-76
2022/09/25 12:07:38;;;;;;;6.63;4.47;;;23.60;64.80;;;;;;5044762;28;20025;-76
2022/09/25 12:10:23;;;;;;;7.75;4.90;;;27.10;53.80;;;;;;5043213;28;20124;-79
2022/09/25 12:13:12;;;;;;;5.72;4.15;;;28.90;52.70;;;;;;5045514;28;20135;-76
2022/09/25 12:16:14;;;;;;;6.90;4.15;;;27.50;52.90;;;;;;5043866;28;20028;-78
2022/09/25 12:18:39;;;;;;;8.18;4.38;;;26.80;54.00;;;;;;5043357;28;20531;-78
2022/09/25 12:21:15;;;;;;;8.43;4.35;;;27.10;53.10;;;;;;5045108;28;20035;-78
2022/09/25 12:23:58;;;;;;;5.70;3.95;;;28.20;50.90;;;;;;5040638;28;20496;-79
2022/09/25 12:27:00;;;;;;;7.00;4.30;;;27.40;52.80;;;;;;5042414;28;20150;-81
2022/09/25 12:29:45;;;;;;;6.57;4.50;;;27.10;53.00;;;;;;5033347;28;20061;-84
2022/09/25 12:32:40;;;;;;;6.07;4.05;;;26.80;56.00;;;;;;5021587;28;20113;-79
2022/09/25 12:35:39;;;;;;;4.13;3.30;;;29.00;49.80;;;;;;5036730;28;20476;-80
2022/09/25 12:38:13;;;;;;;5.18;3.85;;;30.00;47.00;;;;;;5036556;28;20534;-79
2022/09/25 12:40:55;;;;;;;4.43;3.58;;;27.80;48.10;;;;;;5044270;28;20040;-76
2022/09/25 12:43:28;;;;;;;5.30;3.50;;;26.50;53.70;;;;;;5039268;28;20033;-80
2022/09/25 12:46:08;;;;;;;4.88;3.70;;;27.90;52.00;;;;;;5042193;28;20079;-76
2022/09/25 12:48:45;;;;;;;4.80;3.40;;;28.70;48.30;;;;;;5037626;28;20029;-77
2022/09/25 12:51:24;;;;;;;4.18;2.97;;;27.40;49.90;;;;;;5037546;28;20025;-77
2022/09/25 12:54:01;;;;;;;4.28;3.00;;;26.40;50.10;;;;;;5041643;28;20017;-78
2022/09/25 12:56:40;;;;;;;4.72;3.40;;;26.40;50.30;;;;;;5039825;28;20053;-78
2022/09/25 12:59:17;;;;;;;5.43;3.67;;;26.10;51.10;;;;;;5040965;28;20476;-77
2022/09/25 13:02:12;;;;;;;4.30;2.90;;;25.50;53.20;;;;;;5040002;28;20044;-78
2022/09/25 13:05:02;;;;;;;4.90;3.47;;;26.10;50.70;;;;;;5040692;28;20391;-78
2022/09/25 13:07:30;;;;;;;5.30;3.47;;;26.40;50.30;;;;;;5037548;28;20029;-76
2022/09/25 13:09:55;;;;;;;5.57;3.40;;;29.50;46.80;;;;;;5041115;28;20036;-79
2022/09/25 13:12:33;;;;;;;3.75;3.10;;;28.50;48.00;;;;;;5043233;28;20021;-81
2022/09/25 13:15:19;;;;;;;3.15;2.85;;;29.70;45.80;;;;;;5043396;28;20589;-78
2022/09/25 13:17:45;;;;;;;3.58;2.75;;;33.50;41.10;;;;;;5037951;28;20025;-77
2022/09/25 13:20:25;;;;;;;4.75;3.50;;;34.60;39.40;;;;;;5041613;28;20356;-83
2022/09/25 13:22:56;;;;;;;4.70;3.53;;;31.90;39.90;;;;;;5042283;28;20037;-79
2022/09/25 13:25:22;;;;;;;5.37;3.50;;;31.70;41.00;;;;;;5038582;28;20275;-86
2022/09/25 13:27:50;;;;;;;5.78;3.35;;;30.10;43.10;;;;;;5035957;28;20635;-87